<?xml version='1.0' encoding='UTF-8'?><gpx version="1.1" creator="JPX - https://github.com/jenetics/jpx" xmlns="http://www.topografix.com/GPX/1/1"><trk><trkseg><trkpt lat="48.120746799527716" lon="-77.78234250827212"><ele>303.0</ele><time>2026-04-26T21:39:33Z</time></trkpt><trkpt lat="48.12076984687272" lon="-77.78243572045342"><ele>303.0</ele><time>2026-04-26T21:39:35Z</time></trkpt><trkpt lat="48.12084606422547" lon="-77.78288788487478"><ele>303.0</ele><time>2026-04-26T21:39:36Z</time></trkpt><trkpt lat="48.12087232920314" lon="-77.78299614949958"><ele>302.6666666666667</ele><time>2026-04-26T21:39:37Z</time></trkpt><trkpt lat="48.12089722688307" lon="-77.78310645193496"><ele>302.3333333333333</ele><time>2026-04-26T21:39:38Z</time></trkpt><trkpt lat="48.12092222229988" lon="-77.78322135429963"><ele>302.0</ele><time>2026-04-26T21:39:39Z</time></trkpt><trkpt lat="48.120946851757175" lon="-77.78334355866042"><ele>301.66666666666663</ele><time>2026-04-26T21:39:40Z</time></trkpt><trkpt lat="48.12097271216539" lon="-77.78346613668765"><ele>301.3333333333333</ele><time>2026-04-26T21:39:41Z</time></trkpt><trkpt lat="48.12099538622546" lon="-77.78358882963165"><ele>301.0</ele><time>2026-04-26T21:39:42Z</time></trkpt><trkpt lat="48.12101650195796" lon="-77.7837083749052"><ele>301.0</ele><time>2026-04-26T21:39:43Z</time></trkpt><trkpt lat="48.12103873700026" lon="-77.78383732136183"><ele>301.0</ele><time>2026-04-26T21:39:44Z</time></trkpt><trkpt lat="48.12105957998734" lon="-77.78395958381392"><ele>301.0</ele><time>2026-04-26T21:39:45Z</time></trkpt><trkpt lat="48.121100251335335" lon="-77.78415123963114"><ele>301.0</ele><time>2026-04-26T21:39:47Z</time></trkpt><trkpt lat="48.12111833409706" lon="-77.78425640395437"><ele>301.0</ele><time>2026-04-26T21:39:48Z</time></trkpt><trkpt lat="48.12114650431101" lon="-77.78440623373842"><ele>300.8333333333333</ele><time>2026-04-26T21:39:50Z</time></trkpt><trkpt lat="48.12115886584588" lon="-77.7845210753288"><ele>300.66666666666663</ele><time>2026-04-26T21:39:51.999Z</time></trkpt><trkpt lat="48.121163133920554" lon="-77.78461929860546"><ele>300.5</ele><time>2026-04-26T21:39:53.999Z</time></trkpt><trkpt lat="48.1211684058542" lon="-77.78475899485095"><ele>300.3333333333333</ele><time>2026-04-26T21:39:55.999Z</time></trkpt><trkpt lat="48.12116154764366" lon="-77.78493870100303"><ele>300.1666666666667</ele><time>2026-04-26T21:39:57.999Z</time></trkpt><trkpt lat="48.12115902369512" lon="-77.78504064411253"><ele>300.0</ele><time>2026-04-26T21:39:58.999Z</time></trkpt><trkpt lat="48.1211578500612" lon="-77.78515561867358"><ele>299.8333333333333</ele><time>2026-04-26T21:39:59.999Z</time></trkpt><trkpt lat="48.12115895915243" lon="-77.78527143356624"><ele>299.6666666666667</ele><time>2026-04-26T21:40:00.999Z</time></trkpt><trkpt lat="48.12116154969398" lon="-77.78538696866246"><ele>299.5</ele><time>2026-04-26T21:40:01.999Z</time></trkpt><trkpt lat="48.12115882914076" lon="-77.78550527609977"><ele>299.33333333333337</ele><time>2026-04-26T21:40:02.999Z</time></trkpt><trkpt lat="48.12115690819121" lon="-77.78562756908677"><ele>299.1666666666667</ele><time>2026-04-26T21:40:03.999Z</time></trkpt><trkpt lat="48.12116148875803" lon="-77.78575641075948"><ele>299.0</ele><time>2026-04-26T21:40:04.999Z</time></trkpt><trkpt lat="48.12116381394525" lon="-77.7858895512632"><ele>298.8</ele><time>2026-04-26T21:40:05.999Z</time></trkpt><trkpt lat="48.121164435413085" lon="-77.78603080127468"><ele>298.59999999999997</ele><time>2026-04-26T21:40:06.999Z</time></trkpt><trkpt lat="48.121161774715226" lon="-77.78616649870209"><ele>298.4</ele><time>2026-04-26T21:40:07.999Z</time></trkpt><trkpt lat="48.12116214092975" lon="-77.7863015068135"><ele>298.2</ele><time>2026-04-26T21:40:08.999Z</time></trkpt><trkpt lat="48.12116197507135" lon="-77.78643843515745"><ele>298.0</ele><time>2026-04-26T21:40:09.999Z</time></trkpt><trkpt lat="48.12116157202421" lon="-77.78656553517243"><ele>298.0</ele><time>2026-04-26T21:40:10.999Z</time></trkpt><trkpt lat="48.121160297709835" lon="-77.78667918535388"><ele>298.0</ele><time>2026-04-26T21:40:11.999Z</time></trkpt><trkpt lat="48.12116137539817" lon="-77.7867776283683"><ele>298.0</ele><time>2026-04-26T21:40:12.999Z</time></trkpt><trkpt lat="48.12117393433877" lon="-77.78691956196191"><ele>298.0</ele><time>2026-04-26T21:40:14.999Z</time></trkpt><trkpt lat="48.12117940783684" lon="-77.78705166536028"><ele>298.0</ele><time>2026-04-26T21:40:18.999Z</time></trkpt><trkpt lat="48.12116682151748" lon="-77.78717042096355"><ele>298.0</ele><time>2026-04-26T21:40:20.999Z</time></trkpt><trkpt lat="48.12102500895716" lon="-77.78727784874069"><ele>298.2</ele><time>2026-04-26T21:40:22.999Z</time></trkpt><trkpt lat="48.12094990984837" lon="-77.78729753494206"><ele>298.4</ele><time>2026-04-26T21:40:23.999Z</time></trkpt><trkpt lat="48.12086449735571" lon="-77.78729091968059"><ele>298.59999999999997</ele><time>2026-04-26T21:40:24.999Z</time></trkpt><trkpt lat="48.12076156925981" lon="-77.78728297284327"><ele>298.8</ele><time>2026-04-26T21:40:25.999Z</time></trkpt><trkpt lat="48.120652464715214" lon="-77.78728850358878"><ele>299.0</ele><time>2026-04-26T21:40:26.999Z</time></trkpt><trkpt lat="48.120544598397586" lon="-77.7872929357531"><ele>298.25</ele><time>2026-04-26T21:40:27.999Z</time></trkpt><trkpt lat="48.12043401590749" lon="-77.78729367008295"><ele>297.5</ele><time>2026-04-26T21:40:28.999Z</time></trkpt><trkpt lat="48.12032131598112" lon="-77.78729190267335"><ele>296.75</ele><time>2026-04-26T21:40:29.999Z</time></trkpt><trkpt lat="48.120205070965326" lon="-77.7873016386595"><ele>296.0</ele><time>2026-04-26T21:40:30.999Z</time></trkpt><trkpt lat="48.120090546151076" lon="-77.78733014463073"><ele>296.0</ele><time>2026-04-26T21:40:31.999Z</time></trkpt><trkpt lat="48.119971184397365" lon="-77.78736543120525"><ele>296.0</ele><time>2026-04-26T21:40:32.999Z</time></trkpt><trkpt lat="48.119859552278704" lon="-77.787416120914"><ele>296.0</ele><time>2026-04-26T21:40:33.999Z</time></trkpt><trkpt lat="48.119761822691515" lon="-77.78746955122132"><ele>296.0</ele><time>2026-04-26T21:40:34.999Z</time></trkpt><trkpt lat="48.11967004462855" lon="-77.78751745378035"><ele>296.0</ele><time>2026-04-26T21:40:35.999Z</time></trkpt><trkpt lat="48.11958891875089" lon="-77.78756112004842"><ele>295.83333333333337</ele><time>2026-04-26T21:40:36.999Z</time></trkpt><trkpt lat="48.11951777766302" lon="-77.7876018160416"><ele>295.6666666666667</ele><time>2026-04-26T21:40:37.999Z</time></trkpt><trkpt lat="48.119452615960064" lon="-77.78763619961288"><ele>295.5</ele><time>2026-04-26T21:40:38.999Z</time></trkpt><trkpt lat="48.11938831638638" lon="-77.78766726953877"><ele>295.3333333333333</ele><time>2026-04-26T21:40:39.999Z</time></trkpt><trkpt lat="48.119284942435804" lon="-77.78773081724738"><ele>295.16666666666663</ele><time>2026-04-26T21:40:41.999Z</time></trkpt><trkpt lat="48.11919806009399" lon="-77.78777052387518"><ele>295.0</ele><time>2026-04-26T21:40:43.999Z</time></trkpt><trkpt lat="48.11906881352987" lon="-77.78783543783895"><ele>295.0</ele><time>2026-04-26T21:40:45.999Z</time></trkpt><trkpt lat="48.11898472524342" lon="-77.78788091324736"><ele>295.0</ele><time>2026-04-26T21:40:46.999Z</time></trkpt><trkpt lat="48.11889045540247" lon="-77.78793125285729"><ele>295.0</ele><time>2026-04-26T21:40:47.999Z</time></trkpt><trkpt lat="48.11878756567716" lon="-77.78798638501499"><ele>295.0</ele><time>2026-04-26T21:40:48.999Z</time></trkpt><trkpt lat="48.11867642503386" lon="-77.7880468759153"><ele>295.0</ele><time>2026-04-26T21:40:49.999Z</time></trkpt><trkpt lat="48.11856452036776" lon="-77.78810856063566"><ele>295.0</ele><time>2026-04-26T21:40:50.999Z</time></trkpt><trkpt lat="48.11845256251893" lon="-77.78816735602665"><ele>295.0</ele><time>2026-04-26T21:40:51.999Z</time></trkpt><trkpt lat="48.11833977363342" lon="-77.78822137571669"><ele>295.0</ele><time>2026-04-26T21:40:52.999Z</time></trkpt><trkpt lat="48.118224937491405" lon="-77.78827555038144"><ele>295.0</ele><time>2026-04-26T21:40:53.999Z</time></trkpt><trkpt lat="48.11811416627123" lon="-77.7883316738274"><ele>295.5</ele><time>2026-04-26T21:40:54.999Z</time></trkpt><trkpt lat="48.117998731179384" lon="-77.78838825963996"><ele>296.0</ele><time>2026-04-26T21:40:55.999Z</time></trkpt><trkpt lat="48.11788282927302" lon="-77.78844553945243"><ele>296.5</ele><time>2026-04-26T21:40:56.999Z</time></trkpt><trkpt lat="48.11776689266607" lon="-77.78851102045768"><ele>297.0</ele><time>2026-04-26T21:40:57.999Z</time></trkpt><trkpt lat="48.11764868840172" lon="-77.78857537518537"><ele>297.5</ele><time>2026-04-26T21:40:58.999Z</time></trkpt><trkpt lat="48.11752976956218" lon="-77.78863759631786"><ele>298.0</ele><time>2026-04-26T21:40:59.999Z</time></trkpt><trkpt lat="48.11740977338203" lon="-77.7887033549168"><ele>298.5</ele><time>2026-04-26T21:41:00.999Z</time></trkpt><trkpt lat="48.117293308879454" lon="-77.78876555157314"><ele>299.0</ele><time>2026-04-26T21:41:01.999Z</time></trkpt><trkpt lat="48.11717529722683" lon="-77.788826914286"><ele>300.0</ele><time>2026-04-26T21:41:02.999Z</time></trkpt><trkpt lat="48.11705937943669" lon="-77.78888946835166"><ele>301.0</ele><time>2026-04-26T21:41:03.999Z</time></trkpt><trkpt lat="48.116943652671004" lon="-77.78895006969006"><ele>302.0</ele><time>2026-04-26T21:41:04.999Z</time></trkpt><trkpt lat="48.11683023793951" lon="-77.78900950304043"><ele>303.0</ele><time>2026-04-26T21:41:05.999Z</time></trkpt><trkpt lat="48.116717138330266" lon="-77.78906719484243"><ele>303.0</ele><time>2026-04-26T21:41:06.999Z</time></trkpt><trkpt lat="48.11660525540365" lon="-77.7891240731284"><ele>303.0</ele><time>2026-04-26T21:41:07.999Z</time></trkpt><trkpt lat="48.116495826461964" lon="-77.78918136234277"><ele>303.0</ele><time>2026-04-26T21:41:08.999Z</time></trkpt><trkpt lat="48.11638950497472" lon="-77.78923680981612"><ele>303.0</ele><time>2026-04-26T21:41:09.999Z</time></trkpt><trkpt lat="48.116289037232285" lon="-77.78928787773454"><ele>302.6</ele><time>2026-04-26T21:41:10.999Z</time></trkpt><trkpt lat="48.11618926056519" lon="-77.78933571937115"><ele>302.20000000000005</ele><time>2026-04-26T21:41:11.999Z</time></trkpt><trkpt lat="48.11609066750877" lon="-77.78938197637167"><ele>301.8</ele><time>2026-04-26T21:41:12.999Z</time></trkpt><trkpt lat="48.11599791067958" lon="-77.78942738232398"><ele>301.40000000000003</ele><time>2026-04-26T21:41:13.999Z</time></trkpt><trkpt lat="48.11591689903407" lon="-77.78947550737247"><ele>301.0</ele><time>2026-04-26T21:41:14.998Z</time></trkpt><trkpt lat="48.11584015152149" lon="-77.78952725810132"><ele>301.0</ele><time>2026-04-26T21:41:15.998Z</time></trkpt><trkpt lat="48.11577305702326" lon="-77.78959037437342"><ele>301.0</ele><time>2026-04-26T21:41:16.998Z</time></trkpt><trkpt lat="48.11571194552528" lon="-77.78965825262976"><ele>301.0</ele><time>2026-04-26T21:41:17.998Z</time></trkpt><trkpt lat="48.11568996916572" lon="-77.78978864027992"><ele>301.0</ele><time>2026-04-26T21:41:18.998Z</time></trkpt><trkpt lat="48.11569041888467" lon="-77.7899200772992"><ele>301.0</ele><time>2026-04-26T21:41:19.998Z</time></trkpt><trkpt lat="48.11570233500998" lon="-77.7900744379739"><ele>301.0</ele><time>2026-04-26T21:41:20.998Z</time></trkpt><trkpt lat="48.115709838373284" lon="-77.79023202325642"><ele>301.25</ele><time>2026-04-26T21:41:21.998Z</time></trkpt><trkpt lat="48.115708972136304" lon="-77.79039928668581"><ele>301.5</ele><time>2026-04-26T21:41:22.998Z</time></trkpt><trkpt lat="48.115709422890035" lon="-77.79057073690478"><ele>301.75</ele><time>2026-04-26T21:41:23.998Z</time></trkpt><trkpt lat="48.11570964192527" lon="-77.7907485243566"><ele>302.0</ele><time>2026-04-26T21:41:24.998Z</time></trkpt><trkpt lat="48.11570808771796" lon="-77.79092767343906"><ele>301.5</ele><time>2026-04-26T21:41:25.998Z</time></trkpt><trkpt lat="48.115708480123985" lon="-77.79111270752136"><ele>301.0</ele><time>2026-04-26T21:41:27Z</time></trkpt><trkpt lat="48.11570895957646" lon="-77.7913008093306"><ele>300.5</ele><time>2026-04-26T21:41:28Z</time></trkpt><trkpt lat="48.115704888974186" lon="-77.79149028631245"><ele>300.0</ele><time>2026-04-26T21:41:29Z</time></trkpt><trkpt lat="48.115699230434" lon="-77.79167632319248"><ele>300.25</ele><time>2026-04-26T21:41:30Z</time></trkpt><trkpt lat="48.115701659316414" lon="-77.791856443529"><ele>300.5</ele><time>2026-04-26T21:41:31Z</time></trkpt><trkpt lat="48.11570566388642" lon="-77.79203697631907"><ele>300.75</ele><time>2026-04-26T21:41:32Z</time></trkpt><trkpt lat="48.115705886966005" lon="-77.7922175117623"><ele>301.0</ele><time>2026-04-26T21:41:33Z</time></trkpt><trkpt lat="48.11570204558359" lon="-77.79239835728151"><ele>301.0</ele><time>2026-04-26T21:41:34Z</time></trkpt><trkpt lat="48.115700878244326" lon="-77.79257824388439"><ele>301.0</ele><time>2026-04-26T21:41:35Z</time></trkpt><trkpt lat="48.11570087994349" lon="-77.79275951896591"><ele>301.0</ele><time>2026-04-26T21:41:36Z</time></trkpt><trkpt lat="48.115703363019236" lon="-77.7929418873518"><ele>301.0</ele><time>2026-04-26T21:41:37Z</time></trkpt><trkpt lat="48.115705487684465" lon="-77.79312578941004"><ele>300.75</ele><time>2026-04-26T21:41:38Z</time></trkpt><trkpt lat="48.11570684715394" lon="-77.79330879671915"><ele>300.5</ele><time>2026-04-26T21:41:39Z</time></trkpt><trkpt lat="48.11570820697033" lon="-77.79348796654418"><ele>300.25</ele><time>2026-04-26T21:41:40Z</time></trkpt><trkpt lat="48.115705263185006" lon="-77.7936507497759"><ele>300.0</ele><time>2026-04-26T21:41:41Z</time></trkpt><trkpt lat="48.11570526365274" lon="-77.79380007328807"><ele>299.8333333333333</ele><time>2026-04-26T21:41:42Z</time></trkpt><trkpt lat="48.11570467364221" lon="-77.7939381395543"><ele>299.6666666666667</ele><time>2026-04-26T21:41:43Z</time></trkpt><trkpt lat="48.11570020557651" lon="-77.7940666546108"><ele>299.5</ele><time>2026-04-26T21:41:44Z</time></trkpt><trkpt lat="48.11569876124983" lon="-77.79417960405415"><ele>299.33333333333337</ele><time>2026-04-26T21:41:45Z</time></trkpt><trkpt lat="48.11570017733878" lon="-77.79428780693293"><ele>299.1666666666667</ele><time>2026-04-26T21:41:46Z</time></trkpt><trkpt lat="48.11570347606686" lon="-77.79438668082626"><ele>299.0</ele><time>2026-04-26T21:41:47Z</time></trkpt><trkpt lat="48.11570437295156" lon="-77.79455441053602"><ele>298.59999999999997</ele><time>2026-04-26T21:41:49Z</time></trkpt><trkpt lat="48.11569747945228" lon="-77.79472555971516"><ele>298.2</ele><time>2026-04-26T21:41:51Z</time></trkpt><trkpt lat="48.115695969748835" lon="-77.79482107973558"><ele>297.79999999999995</ele><time>2026-04-26T21:41:52Z</time></trkpt><trkpt lat="48.115704845252885" lon="-77.79498721644113"><ele>297.4</ele><time>2026-04-26T21:41:54Z</time></trkpt><trkpt lat="48.11571122694431" lon="-77.79511956902273"><ele>297.0</ele><time>2026-04-26T21:41:56Z</time></trkpt><trkpt lat="48.11571027531117" lon="-77.79523008922608"><ele>296.8</ele><time>2026-04-26T21:41:58Z</time></trkpt><trkpt lat="48.11569437401875" lon="-77.79534326600348"><ele>296.6</ele><time>2026-04-26T21:42:00.999Z</time></trkpt><trkpt lat="48.11559542311871" lon="-77.79540628580648"><ele>296.40000000000003</ele><time>2026-04-26T21:42:02.999Z</time></trkpt><trkpt lat="48.115514833834006" lon="-77.7954262232847"><ele>296.2</ele><time>2026-04-26T21:42:03.999Z</time></trkpt><trkpt lat="48.11541810145248" lon="-77.79542956724288"><ele>296.0</ele><time>2026-04-26T21:42:04.999Z</time></trkpt><trkpt lat="48.115318020921826" lon="-77.79542316968217"><ele>296.0</ele><time>2026-04-26T21:42:05.999Z</time></trkpt><trkpt lat="48.11521001025636" lon="-77.79541824229612"><ele>296.0</ele><time>2026-04-26T21:42:06.999Z</time></trkpt><trkpt lat="48.115092197875974" lon="-77.7954165942998"><ele>296.0</ele><time>2026-04-26T21:42:07.999Z</time></trkpt><trkpt lat="48.11496701166212" lon="-77.79541175862681"><ele>296.0</ele><time>2026-04-26T21:42:08.999Z</time></trkpt><trkpt lat="48.114838338916364" lon="-77.79540693596493"><ele>296.5</ele><time>2026-04-26T21:42:09.999Z</time></trkpt><trkpt lat="48.11471587676657" lon="-77.79540944197299"><ele>297.0</ele><time>2026-04-26T21:42:10.999Z</time></trkpt><trkpt lat="48.11459322102341" lon="-77.79541175794034"><ele>297.5</ele><time>2026-04-26T21:42:11.999Z</time></trkpt><trkpt lat="48.114472847337446" lon="-77.7954105159192"><ele>298.0</ele><time>2026-04-26T21:42:12.999Z</time></trkpt><trkpt lat="48.11435085671079" lon="-77.79541281000054"><ele>298.0</ele><time>2026-04-26T21:42:13.999Z</time></trkpt><trkpt lat="48.11423058011483" lon="-77.79541696233444"><ele>298.0</ele><time>2026-04-26T21:42:14.999Z</time></trkpt><trkpt lat="48.114109792603486" lon="-77.79541534250458"><ele>298.0</ele><time>2026-04-26T21:42:15.999Z</time></trkpt><trkpt lat="48.113987882376286" lon="-77.79541274269434"><ele>298.0</ele><time>2026-04-26T21:42:16.999Z</time></trkpt><trkpt lat="48.1138671194672" lon="-77.7954120462444"><ele>298.25</ele><time>2026-04-26T21:42:17.999Z</time></trkpt><trkpt lat="48.113747188898195" lon="-77.7954138594473"><ele>298.5</ele><time>2026-04-26T21:42:18.999Z</time></trkpt><trkpt lat="48.1136296850777" lon="-77.79541591674958"><ele>298.75</ele><time>2026-04-26T21:42:19.999Z</time></trkpt><trkpt lat="48.113512678667576" lon="-77.79541230186074"><ele>299.0</ele><time>2026-04-26T21:42:20.999Z</time></trkpt><trkpt lat="48.11339544359834" lon="-77.79540926501747"><ele>299.0</ele><time>2026-04-26T21:42:21.999Z</time></trkpt><trkpt lat="48.11328089369933" lon="-77.79540898034003"><ele>299.0</ele><time>2026-04-26T21:42:22.999Z</time></trkpt><trkpt lat="48.113171257790036" lon="-77.79541607902557"><ele>299.0</ele><time>2026-04-26T21:42:23.999Z</time></trkpt><trkpt lat="48.11307566845586" lon="-77.79543740396518"><ele>299.0</ele><time>2026-04-26T21:42:24.999Z</time></trkpt><trkpt lat="48.11298845856424" lon="-77.79547760682601"><ele>299.0</ele><time>2026-04-26T21:42:25.999Z</time></trkpt><trkpt lat="48.11291572804606" lon="-77.79552891970005"><ele>299.1666666666667</ele><time>2026-04-26T21:42:26.999Z</time></trkpt><trkpt lat="48.112840841710536" lon="-77.79557469610494"><ele>299.33333333333337</ele><time>2026-04-26T21:42:27.999Z</time></trkpt><trkpt lat="48.11276384049412" lon="-77.79560865590574"><ele>299.5</ele><time>2026-04-26T21:42:28.999Z</time></trkpt><trkpt lat="48.11268646969358" lon="-77.79561017133835"><ele>299.6666666666667</ele><time>2026-04-26T21:42:29.999Z</time></trkpt><trkpt lat="48.11261255768491" lon="-77.79557436433568"><ele>299.8333333333333</ele><time>2026-04-26T21:42:30.999Z</time></trkpt><trkpt lat="48.112543270281584" lon="-77.79553023723614"><ele>300.0</ele><time>2026-04-26T21:42:31.999Z</time></trkpt><trkpt lat="48.11248702590162" lon="-77.79548364115206"><ele>299.99999999999994</ele><time>2026-04-26T21:42:32.999Z</time></trkpt><trkpt lat="48.11241642370584" lon="-77.79546171529233"><ele>300.0</ele><time>2026-04-26T21:42:33.999Z</time></trkpt><trkpt lat="48.112346846776326" lon="-77.79547916861553"><ele>300.0</ele><time>2026-04-26T21:42:34.999Z</time></trkpt><trkpt lat="48.11229056315015" lon="-77.79555382854835"><ele>300.0</ele><time>2026-04-26T21:42:35.999Z</time></trkpt><trkpt lat="48.112272973744346" lon="-77.79565981885226"><ele>300.0</ele><time>2026-04-26T21:42:36.999Z</time></trkpt><trkpt lat="48.11228886521706" lon="-77.79576611305316"><ele>299.99999999999994</ele><time>2026-04-26T21:42:37.999Z</time></trkpt><trkpt lat="48.11232006254674" lon="-77.79586651844865"><ele>300.0</ele><time>2026-04-26T21:42:38.999Z</time></trkpt><trkpt lat="48.11234219461983" lon="-77.79597808057618"><ele>300.3333333333333</ele><time>2026-04-26T21:42:39.999Z</time></trkpt><trkpt lat="48.112361219247475" lon="-77.79609861808711"><ele>300.6666666666667</ele><time>2026-04-26T21:42:40.999Z</time></trkpt><trkpt lat="48.11237568881119" lon="-77.79622710057994"><ele>301.0</ele><time>2026-04-26T21:42:41.999Z</time></trkpt><trkpt lat="48.11237804881381" lon="-77.79636320969921"><ele>301.33333333333337</ele><time>2026-04-26T21:42:42.999Z</time></trkpt><trkpt lat="48.11237636911738" lon="-77.79650237756064"><ele>301.6666666666667</ele><time>2026-04-26T21:42:43.999Z</time></trkpt><trkpt lat="48.112376913599235" lon="-77.79664586446832"><ele>302.0</ele><time>2026-04-26T21:42:44.999Z</time></trkpt><trkpt lat="48.11238102935333" lon="-77.79679133776858"><ele>301.6</ele><time>2026-04-26T21:42:45.999Z</time></trkpt><trkpt lat="48.112381377001356" lon="-77.79694128900711"><ele>301.2</ele><time>2026-04-26T21:42:46.999Z</time></trkpt><trkpt lat="48.11237645510113" lon="-77.79709153097875"><ele>300.8</ele><time>2026-04-26T21:42:47.999Z</time></trkpt><trkpt lat="48.112373823924884" lon="-77.79724072079367"><ele>300.4</ele><time>2026-04-26T21:42:48.999Z</time></trkpt><trkpt lat="48.112374423418736" lon="-77.79739230055215"><ele>300.0</ele><time>2026-04-26T21:42:49.999Z</time></trkpt><trkpt lat="48.11237562850541" lon="-77.79754632853485"><ele>300.0</ele><time>2026-04-26T21:42:50.999Z</time></trkpt><trkpt lat="48.11237645273919" lon="-77.79770118044402"><ele>300.0</ele><time>2026-04-26T21:42:51.999Z</time></trkpt><trkpt lat="48.112377243140514" lon="-77.797857874085"><ele>300.0</ele><time>2026-04-26T21:42:52.999Z</time></trkpt><trkpt lat="48.112374718096774" lon="-77.79801531036645"><ele>300.0</ele><time>2026-04-26T21:42:53.999Z</time></trkpt><trkpt lat="48.11236786840494" lon="-77.79817345381296"><ele>300.0</ele><time>2026-04-26T21:42:54.999Z</time></trkpt><trkpt lat="48.11237020631162" lon="-77.7983284195837"><ele>300.0</ele><time>2026-04-26T21:42:55.999Z</time></trkpt><trkpt lat="48.11239055076205" lon="-77.79848156695768"><ele>300.0</ele><time>2026-04-26T21:42:56.999Z</time></trkpt><trkpt lat="48.112431020001715" lon="-77.79862220197784"><ele>300.0</ele><time>2026-04-26T21:42:57.999Z</time></trkpt><trkpt lat="48.112462465057334" lon="-77.79875423582398"><ele>300.0</ele><time>2026-04-26T21:42:58.999Z</time></trkpt><trkpt lat="48.11248470787082" lon="-77.79888757366585"><ele>300.0</ele><time>2026-04-26T21:42:59.999Z</time></trkpt><trkpt lat="48.11249573988877" lon="-77.79902612484445"><ele>300.0</ele><time>2026-04-26T21:43:00.999Z</time></trkpt><trkpt lat="48.11248883005211" lon="-77.79916167565187"><ele>300.0</ele><time>2026-04-26T21:43:01.999Z</time></trkpt><trkpt lat="48.11248763270763" lon="-77.79929859159793"><ele>300.0</ele><time>2026-04-26T21:43:02.999Z</time></trkpt><trkpt lat="48.1124874486578" lon="-77.7994379073717"><ele>300.0</ele><time>2026-04-26T21:43:03.999Z</time></trkpt><trkpt lat="48.112485717860515" lon="-77.79957241140289"><ele>300.0</ele><time>2026-04-26T21:43:04.999Z</time></trkpt><trkpt lat="48.1124862398735" lon="-77.79970185620427"><ele>299.85714285714283</ele><time>2026-04-26T21:43:05.999Z</time></trkpt><trkpt lat="48.11248764502833" lon="-77.79981613364353"><ele>299.7142857142857</ele><time>2026-04-26T21:43:06.999Z</time></trkpt><trkpt lat="48.112491284592146" lon="-77.79991200078587"><ele>299.57142857142856</ele><time>2026-04-26T21:43:07.999Z</time></trkpt><trkpt lat="48.11248733442607" lon="-77.80000693311719"><ele>299.42857142857144</ele><time>2026-04-26T21:43:08.999Z</time></trkpt><trkpt lat="48.11248117965173" lon="-77.8001032443021"><ele>299.2857142857143</ele><time>2026-04-26T21:43:09.999Z</time></trkpt><trkpt lat="48.11247716764175" lon="-77.80021015074624"><ele>299.1428571428571</ele><time>2026-04-26T21:43:10.999Z</time></trkpt><trkpt lat="48.11247284778339" lon="-77.80032217181984"><ele>299.0</ele><time>2026-04-26T21:43:11.999Z</time></trkpt><trkpt lat="48.112471639850305" lon="-77.8004308746207"><ele>299.0</ele><time>2026-04-26T21:43:12.999Z</time></trkpt><trkpt lat="48.112474014195065" lon="-77.80053516373943"><ele>299.0</ele><time>2026-04-26T21:43:13.999Z</time></trkpt><trkpt lat="48.11246990013927" lon="-77.80069943554892"><ele>299.0</ele><time>2026-04-26T21:43:15.999Z</time></trkpt><trkpt lat="48.11247217235465" lon="-77.80079810855675"><ele>299.0</ele><time>2026-04-26T21:43:17.999Z</time></trkpt><trkpt lat="48.11247960534221" lon="-77.80089596206403"><ele>299.0</ele><time>2026-04-26T21:43:25.999Z</time></trkpt><trkpt lat="48.112494099538345" lon="-77.80099054085807"><ele>299.0</ele><time>2026-04-26T21:43:27.999Z</time></trkpt><trkpt lat="48.1125098812807" lon="-77.80111132671676"><ele>299.0</ele><time>2026-04-26T21:43:29.999Z</time></trkpt><trkpt lat="48.11249542520064" lon="-77.80129772288656"><ele>299.0</ele><time>2026-04-26T21:43:32Z</time></trkpt><trkpt lat="48.112489060024096" lon="-77.80142537839274"><ele>299.0</ele><time>2026-04-26T21:43:33Z</time></trkpt><trkpt lat="48.11248431458256" lon="-77.80156602954727"><ele>299.0</ele><time>2026-04-26T21:43:34Z</time></trkpt><trkpt lat="48.112484509486904" lon="-77.80170305871887"><ele>299.0</ele><time>2026-04-26T21:43:35Z</time></trkpt><trkpt lat="48.11249575290346" lon="-77.80183598579941"><ele>299.2</ele><time>2026-04-26T21:43:36Z</time></trkpt><trkpt lat="48.11250829238476" lon="-77.80195545148146"><ele>299.4</ele><time>2026-04-26T21:43:37Z</time></trkpt><trkpt lat="48.11252638131618" lon="-77.8020541684335"><ele>299.6</ele><time>2026-04-26T21:43:38Z</time></trkpt><trkpt lat="48.11253917332026" lon="-77.80222858635148"><ele>299.8</ele><time>2026-04-26T21:43:40Z</time></trkpt><trkpt lat="48.112542617194364" lon="-77.80232292262156"><ele>300.0</ele><time>2026-04-26T21:43:41Z</time></trkpt><trkpt lat="48.112554493336305" lon="-77.80250365163344"><ele>300.0</ele><time>2026-04-26T21:43:43Z</time></trkpt><trkpt lat="48.11255125161217" lon="-77.80265393877829"><ele>300.0</ele><time>2026-04-26T21:43:45Z</time></trkpt><trkpt lat="48.11254189159327" lon="-77.80279868232813"><ele>300.0</ele><time>2026-04-26T21:43:47Z</time></trkpt><trkpt lat="48.11252823638137" lon="-77.80294956917687"><ele>300.0</ele><time>2026-04-26T21:43:49Z</time></trkpt><trkpt lat="48.112507871475344" lon="-77.80312234514047"><ele>300.0</ele><time>2026-04-26T21:43:51Z</time></trkpt><trkpt lat="48.112518907284844" lon="-77.803236393326"><ele>299.8333333333333</ele><time>2026-04-26T21:43:53Z</time></trkpt><trkpt lat="48.11253561244323" lon="-77.80335610050982"><ele>299.6666666666667</ele><time>2026-04-26T21:44:04Z</time></trkpt><trkpt lat="48.11252449890034" lon="-77.80345354225328"><ele>299.5</ele><time>2026-04-26T21:44:06Z</time></trkpt><trkpt lat="48.11253722069977" lon="-77.80357000524674"><ele>299.33333333333337</ele><time>2026-04-26T21:44:09Z</time></trkpt><trkpt lat="48.11250937319769" lon="-77.80367597933233"><ele>299.1666666666667</ele><time>2026-04-26T21:44:11Z</time></trkpt><trkpt lat="48.11251890166125" lon="-77.80382038796753"><ele>299.0</ele><time>2026-04-26T21:44:13Z</time></trkpt><trkpt lat="48.11252550015504" lon="-77.80400819177247"><ele>299.0</ele><time>2026-04-26T21:44:15Z</time></trkpt><trkpt lat="48.1125213124563" lon="-77.80410846804313"><ele>299.0</ele><time>2026-04-26T21:44:16Z</time></trkpt><trkpt lat="48.11250681466838" lon="-77.8042545161078"><ele>299.0</ele><time>2026-04-26T21:44:18Z</time></trkpt><trkpt lat="48.112497052172905" lon="-77.8044168102983"><ele>299.0</ele><time>2026-04-26T21:44:19.999Z</time></trkpt><trkpt lat="48.112479496588186" lon="-77.80455288070159"><ele>299.0</ele><time>2026-04-26T21:44:21.999Z</time></trkpt><trkpt lat="48.11246439754347" lon="-77.80468015678466"><ele>299.0</ele><time>2026-04-26T21:44:23.999Z</time></trkpt><trkpt lat="48.11247246667082" lon="-77.80477557809112"><ele>299.0</ele><time>2026-04-26T21:44:25.999Z</time></trkpt><trkpt lat="48.11246987744079" lon="-77.80489519897063"><ele>299.0</ele><time>2026-04-26T21:44:27.999Z</time></trkpt><trkpt lat="48.11246706281234" lon="-77.80501248855496"><ele>299.0</ele><time>2026-04-26T21:44:29.999Z</time></trkpt><trkpt lat="48.112465767190464" lon="-77.80513419176769"><ele>299.0</ele><time>2026-04-26T21:44:31.999Z</time></trkpt><trkpt lat="48.112463545298105" lon="-77.80525962599094"><ele>299.0</ele><time>2026-04-26T21:44:33.999Z</time></trkpt><trkpt lat="48.112460637380565" lon="-77.80537547960671"><ele>299.0</ele><time>2026-04-26T21:44:35.999Z</time></trkpt><trkpt lat="48.11246298533376" lon="-77.80551663946333"><ele>299.0</ele><time>2026-04-26T21:44:37.999Z</time></trkpt><trkpt lat="48.11246283318293" lon="-77.8056413796833"><ele>299.0</ele><time>2026-04-26T21:44:39.999Z</time></trkpt><trkpt lat="48.11246681138071" lon="-77.80576167877845"><ele>299.0</ele><time>2026-04-26T21:44:41.999Z</time></trkpt><trkpt lat="48.11246572100571" lon="-77.80586599192415"><ele>299.0</ele><time>2026-04-26T21:44:43.999Z</time></trkpt><trkpt lat="48.112465039141775" lon="-77.80597638664283"><ele>299.0</ele><time>2026-04-26T21:44:45.999Z</time></trkpt><trkpt lat="48.11246485454469" lon="-77.80608145464026"><ele>299.1666666666667</ele><time>2026-04-26T21:44:47.999Z</time></trkpt><trkpt lat="48.11246780027321" lon="-77.80620772294922"><ele>299.33333333333337</ele><time>2026-04-26T21:44:49.999Z</time></trkpt><trkpt lat="48.11247286811651" lon="-77.80633115165632"><ele>299.5</ele><time>2026-04-26T21:44:52.999Z</time></trkpt><trkpt lat="48.11247701382248" lon="-77.80643489879456"><ele>299.6666666666667</ele><time>2026-04-26T21:44:54.999Z</time></trkpt><trkpt lat="48.112476856054364" lon="-77.80653521365565"><ele>299.8333333333333</ele><time>2026-04-26T21:44:56.999Z</time></trkpt><trkpt lat="48.112481643573304" lon="-77.80666232665186"><ele>300.0</ele><time>2026-04-26T21:44:59.999Z</time></trkpt><trkpt lat="48.11248409103234" lon="-77.80679273601595"><ele>300.1428571428571</ele><time>2026-04-26T21:45:02.999Z</time></trkpt><trkpt lat="48.11248939956385" lon="-77.8068908521755"><ele>300.2857142857143</ele><time>2026-04-26T21:45:04.999Z</time></trkpt><trkpt lat="48.11250270086855" lon="-77.80703708481094"><ele>300.42857142857144</ele><time>2026-04-26T21:45:07.999Z</time></trkpt><trkpt lat="48.1125081318607" lon="-77.8071338525509"><ele>300.57142857142856</ele><time>2026-04-26T21:45:09.999Z</time></trkpt><trkpt lat="48.11251072308514" lon="-77.8072388553724"><ele>300.7142857142857</ele><time>2026-04-26T21:45:11.999Z</time></trkpt><trkpt lat="48.11251761270532" lon="-77.80734873042486"><ele>300.85714285714283</ele><time>2026-04-26T21:45:13.999Z</time></trkpt><trkpt lat="48.112520938097724" lon="-77.80745359046284"><ele>301.0</ele><time>2026-04-26T21:45:15.999Z</time></trkpt><trkpt lat="48.112506283590704" lon="-77.8075606906237"><ele>301.0</ele><time>2026-04-26T21:45:17.999Z</time></trkpt><trkpt lat="48.11250812887837" lon="-77.80766052724012"><ele>301.0</ele><time>2026-04-26T21:45:19.999Z</time></trkpt><trkpt lat="48.11249943770747" lon="-77.8077619009359"><ele>301.0</ele><time>2026-04-26T21:45:21.999Z</time></trkpt><trkpt lat="48.112461075802415" lon="-77.80785956088408"><ele>301.0</ele><time>2026-04-26T21:45:23.999Z</time></trkpt><trkpt lat="48.112418872461326" lon="-77.8079761071407"><ele>301.0</ele><time>2026-04-26T21:45:25.999Z</time></trkpt><trkpt lat="48.11238273407228" lon="-77.80811545040883"><ele>301.0</ele><time>2026-04-26T21:45:27.999Z</time></trkpt><trkpt lat="48.1123538319183" lon="-77.80825414702619"><ele>301.0</ele><time>2026-04-26T21:45:29.999Z</time></trkpt><trkpt lat="48.1123466293093" lon="-77.80836060185624"><ele>301.0</ele><time>2026-04-26T21:45:31.999Z</time></trkpt><trkpt lat="48.112344604751016" lon="-77.80847653050022"><ele>301.0</ele><time>2026-04-26T21:45:33.999Z</time></trkpt><trkpt lat="48.11236208564526" lon="-77.80859283513985"><ele>301.0</ele><time>2026-04-26T21:45:35.999Z</time></trkpt><trkpt lat="48.1123763696021" lon="-77.80870000540472"><ele>301.0</ele><time>2026-04-26T21:45:38Z</time></trkpt><trkpt lat="48.112398350730594" lon="-77.80882201291573"><ele>301.0</ele><time>2026-04-26T21:45:40Z</time></trkpt><trkpt lat="48.11240544021887" lon="-77.80891894387057"><ele>300.85714285714283</ele><time>2026-04-26T21:45:42Z</time></trkpt><trkpt lat="48.11241734436952" lon="-77.80904362636734"><ele>300.7142857142857</ele><time>2026-04-26T21:45:45Z</time></trkpt><trkpt lat="48.11243023241553" lon="-77.80914745693549"><ele>300.57142857142856</ele><time>2026-04-26T21:45:47Z</time></trkpt><trkpt lat="48.11243670568926" lon="-77.80926254953349"><ele>300.42857142857144</ele><time>2026-04-26T21:45:49Z</time></trkpt><trkpt lat="48.11244791199588" lon="-77.80936493260721"><ele>300.2857142857143</ele><time>2026-04-26T21:45:51Z</time></trkpt><trkpt lat="48.11245915391484" lon="-77.80947461958979"><ele>300.1428571428571</ele><time>2026-04-26T21:45:53Z</time></trkpt><trkpt lat="48.11246793354183" lon="-77.80958201723409"><ele>300.0</ele><time>2026-04-26T21:45:55Z</time></trkpt><trkpt lat="48.112481831125635" lon="-77.80969007016128"><ele>300.0</ele><time>2026-04-26T21:45:57Z</time></trkpt><trkpt lat="48.112510437492666" lon="-77.8097917246842"><ele>300.0</ele><time>2026-04-26T21:45:59Z</time></trkpt><trkpt lat="48.11254440480056" lon="-77.80989160626096"><ele>300.0</ele><time>2026-04-26T21:46:01Z</time></trkpt><trkpt lat="48.112539148427494" lon="-77.81001745078892"><ele>300.0</ele><time>2026-04-26T21:46:03Z</time></trkpt><trkpt lat="48.11252797478969" lon="-77.81013207824006"><ele>300.0</ele><time>2026-04-26T21:46:05Z</time></trkpt><trkpt lat="48.1125443197106" lon="-77.8102330076516"><ele>300.0</ele><time>2026-04-26T21:46:07Z</time></trkpt><trkpt lat="48.11256080527574" lon="-77.81034981766666"><ele>299.6</ele><time>2026-04-26T21:46:09Z</time></trkpt><trkpt lat="48.11257646942741" lon="-77.81048670739511"><ele>299.2</ele><time>2026-04-26T21:46:11Z</time></trkpt><trkpt lat="48.11258697864298" lon="-77.8106312252638"><ele>298.8</ele><time>2026-04-26T21:46:13Z</time></trkpt><trkpt lat="48.112578470073515" lon="-77.81078733277761"><ele>298.4</ele><time>2026-04-26T21:46:15Z</time></trkpt><trkpt lat="48.112582650440366" lon="-77.81093564502798"><ele>298.0</ele><time>2026-04-26T21:46:17Z</time></trkpt><trkpt lat="48.11257843108307" lon="-77.81107342632066"><ele>297.8</ele><time>2026-04-26T21:46:19Z</time></trkpt><trkpt lat="48.11254441555901" lon="-77.81120527755647"><ele>297.6</ele><time>2026-04-26T21:46:21Z</time></trkpt><trkpt lat="48.112504942724726" lon="-77.81133930319406"><ele>297.4</ele><time>2026-04-26T21:46:23Z</time></trkpt><trkpt lat="48.11248612733685" lon="-77.8114803243234"><ele>297.2</ele><time>2026-04-26T21:46:25Z</time></trkpt><trkpt lat="48.11248433668954" lon="-77.81162011255799"><ele>297.0</ele><time>2026-04-26T21:46:27Z</time></trkpt><trkpt lat="48.112486200555864" lon="-77.81173600502244"><ele>297.1666666666667</ele><time>2026-04-26T21:46:29Z</time></trkpt><trkpt lat="48.11248344016489" lon="-77.81187539970952"><ele>297.3333333333333</ele><time>2026-04-26T21:46:31Z</time></trkpt><trkpt lat="48.11248603767991" lon="-77.81199716205694"><ele>297.5</ele><time>2026-04-26T21:46:33Z</time></trkpt><trkpt lat="48.11249318139518" lon="-77.81211928820456"><ele>297.66666666666663</ele><time>2026-04-26T21:46:35Z</time></trkpt><trkpt lat="48.11250043831276" lon="-77.81224126906568"><ele>297.8333333333333</ele><time>2026-04-26T21:46:37Z</time></trkpt><trkpt lat="48.11250831257817" lon="-77.812365516252"><ele>298.0</ele><time>2026-04-26T21:46:38.999Z</time></trkpt><trkpt lat="48.11251497747901" lon="-77.81248546055744"><ele>298.0</ele><time>2026-04-26T21:46:40.999Z</time></trkpt><trkpt lat="48.11252928997982" lon="-77.81261280612053"><ele>298.0</ele><time>2026-04-26T21:46:42.999Z</time></trkpt><trkpt lat="48.11253933098154" lon="-77.8127268842529"><ele>298.0</ele><time>2026-04-26T21:46:44.999Z</time></trkpt><trkpt lat="48.11254094101231" lon="-77.81282655698095"><ele>298.0</ele><time>2026-04-26T21:46:46.999Z</time></trkpt><trkpt lat="48.11254970466694" lon="-77.81297346596868"><ele>298.0</ele><time>2026-04-26T21:46:49.999Z</time></trkpt><trkpt lat="48.11255563855695" lon="-77.81307734486742"><ele>298.0</ele><time>2026-04-26T21:46:51.999Z</time></trkpt><trkpt lat="48.11255878604003" lon="-77.81318795995844"><ele>298.0</ele><time>2026-04-26T21:46:53.999Z</time></trkpt><trkpt lat="48.11256035503486" lon="-77.81331475271526"><ele>298.0</ele><time>2026-04-26T21:46:55.999Z</time></trkpt><trkpt lat="48.11256400229406" lon="-77.81343057748072"><ele>298.0</ele><time>2026-04-26T21:46:57.999Z</time></trkpt><trkpt lat="48.11256509572299" lon="-77.81355485864188"><ele>298.0</ele><time>2026-04-26T21:46:59.999Z</time></trkpt><trkpt lat="48.11256908371165" lon="-77.81366393802848"><ele>298.0</ele><time>2026-04-26T21:47:01.999Z</time></trkpt><trkpt lat="48.112568958763525" lon="-77.81378442446922"><ele>298.0</ele><time>2026-04-26T21:47:03.999Z</time></trkpt><trkpt lat="48.112567221234364" lon="-77.81389721511455"><ele>298.0</ele><time>2026-04-26T21:47:05.999Z</time></trkpt><trkpt lat="48.11255716853158" lon="-77.81399079458575"><ele>298.0</ele><time>2026-04-26T21:47:07.999Z</time></trkpt><trkpt lat="48.112563374249106" lon="-77.81410087317433"><ele>298.0</ele><time>2026-04-26T21:47:09.999Z</time></trkpt><trkpt lat="48.11256717025592" lon="-77.8141954045154"><ele>298.0</ele><time>2026-04-26T21:47:11.999Z</time></trkpt><trkpt lat="48.112567995573926" lon="-77.81432819449986"><ele>298.0</ele><time>2026-04-26T21:47:14.999Z</time></trkpt><trkpt lat="48.1125644749841" lon="-77.81442264225949"><ele>298.0</ele><time>2026-04-26T21:47:16.999Z</time></trkpt><trkpt lat="48.11256387729493" lon="-77.81456604216991"><ele>298.0</ele><time>2026-04-26T21:47:19.999Z</time></trkpt><trkpt lat="48.11255773614997" lon="-77.81468327922191"><ele>297.85714285714283</ele><time>2026-04-26T21:47:21.999Z</time></trkpt><trkpt lat="48.11255021912852" lon="-77.81481993808664"><ele>297.71428571428567</ele><time>2026-04-26T21:47:23.999Z</time></trkpt><trkpt lat="48.11254245520913" lon="-77.8149311834536"><ele>297.57142857142856</ele><time>2026-04-26T21:47:25.999Z</time></trkpt><trkpt lat="48.11254179774491" lon="-77.81504186226377"><ele>297.42857142857144</ele><time>2026-04-26T21:47:27.999Z</time></trkpt><trkpt lat="48.11253744155198" lon="-77.81513761618342"><ele>297.28571428571433</ele><time>2026-04-26T21:47:29.999Z</time></trkpt><trkpt lat="48.11253148769513" lon="-77.8152393060338"><ele>297.14285714285717</ele><time>2026-04-26T21:47:31.999Z</time></trkpt><trkpt lat="48.11252997459783" lon="-77.8153475507326"><ele>297.0</ele><time>2026-04-26T21:47:33.999Z</time></trkpt><trkpt lat="48.11252166551264" lon="-77.81547731688606"><ele>297.0</ele><time>2026-04-26T21:47:36.999Z</time></trkpt><trkpt lat="48.112515021084405" lon="-77.81558509299691"><ele>297.0</ele><time>2026-04-26T21:47:38.999Z</time></trkpt><trkpt lat="48.112505741575866" lon="-77.81572587850044"><ele>297.0</ele><time>2026-04-26T21:47:41.999Z</time></trkpt><trkpt lat="48.112498623444985" lon="-77.81582999992199"><ele>297.0</ele><time>2026-04-26T21:47:44Z</time></trkpt><trkpt lat="48.11250123617224" lon="-77.81597619466314"><ele>297.0</ele><time>2026-04-26T21:47:47Z</time></trkpt><trkpt lat="48.11249636431891" lon="-77.8160805682316"><ele>297.0</ele><time>2026-04-26T21:47:49Z</time></trkpt><trkpt lat="48.1125236392965" lon="-77.81617543963146"><ele>296.8333333333333</ele><time>2026-04-26T21:47:51Z</time></trkpt><trkpt lat="48.11254897754383" lon="-77.81626583493242"><ele>296.6666666666667</ele><time>2026-04-26T21:47:53Z</time></trkpt><trkpt lat="48.112527945052896" lon="-77.81637598175884"><ele>296.5</ele><time>2026-04-26T21:47:56Z</time></trkpt><trkpt lat="48.11249539806032" lon="-77.81649615735412"><ele>296.33333333333337</ele><time>2026-04-26T21:48:19Z</time></trkpt><trkpt lat="48.11250316150692" lon="-77.81663647922109"><ele>296.1666666666667</ele><time>2026-04-26T21:48:22Z</time></trkpt><trkpt lat="48.11249984106265" lon="-77.8167432221539"><ele>296.0</ele><time>2026-04-26T21:48:24Z</time></trkpt><trkpt lat="48.112495999915396" lon="-77.8168619074997"><ele>296.0</ele><time>2026-04-26T21:48:26Z</time></trkpt><trkpt lat="48.11249528862941" lon="-77.81701329125265"><ele>296.0</ele><time>2026-04-26T21:48:29Z</time></trkpt><trkpt lat="48.11249290623348" lon="-77.81718732540595"><ele>296.0</ele><time>2026-04-26T21:48:31Z</time></trkpt><trkpt lat="48.11249401770473" lon="-77.81729443046434"><ele>296.0</ele><time>2026-04-26T21:48:32Z</time></trkpt><trkpt lat="48.11249754743644" lon="-77.81742046141702"><ele>296.0</ele><time>2026-04-26T21:48:33Z</time></trkpt><trkpt lat="48.11249587807581" lon="-77.81755038922601"><ele>296.33333333333337</ele><time>2026-04-26T21:48:34Z</time></trkpt><trkpt lat="48.11249889191542" lon="-77.81768634267901"><ele>296.6666666666667</ele><time>2026-04-26T21:48:35Z</time></trkpt><trkpt lat="48.11249769557552" lon="-77.81782220722094"><ele>297.0</ele><time>2026-04-26T21:48:36Z</time></trkpt><trkpt lat="48.112499613883344" lon="-77.81795562882427"><ele>297.3333333333333</ele><time>2026-04-26T21:48:37Z</time></trkpt><trkpt lat="48.11249627897291" lon="-77.81808484448234"><ele>297.66666666666663</ele><time>2026-04-26T21:48:38Z</time></trkpt><trkpt lat="48.1124926885999" lon="-77.8182135480155"><ele>298.0</ele><time>2026-04-26T21:48:39Z</time></trkpt><trkpt lat="48.11249367254749" lon="-77.81833864209294"><ele>298.0</ele><time>2026-04-26T21:48:40Z</time></trkpt><trkpt lat="48.11249155708019" lon="-77.81845931922977"><ele>298.0</ele><time>2026-04-26T21:48:41Z</time></trkpt><trkpt lat="48.11249580494152" lon="-77.81857317952928"><ele>298.0</ele><time>2026-04-26T21:48:42Z</time></trkpt><trkpt lat="48.112503160195324" lon="-77.81868811443428"><ele>298.0</ele><time>2026-04-26T21:48:43Z</time></trkpt><trkpt lat="48.112508908173034" lon="-77.81880229300745"><ele>298.0</ele><time>2026-04-26T21:48:44Z</time></trkpt><trkpt lat="48.112510788695" lon="-77.81891633360416"><ele>298.0</ele><time>2026-04-26T21:48:45Z</time></trkpt><trkpt lat="48.112509952300535" lon="-77.81902134028033"><ele>298.2</ele><time>2026-04-26T21:48:46Z</time></trkpt><trkpt lat="48.11247953203494" lon="-77.81915290163786"><ele>298.4</ele><time>2026-04-26T21:48:48Z</time></trkpt><trkpt lat="48.11239539788508" lon="-77.81922000866011"><ele>298.59999999999997</ele><time>2026-04-26T21:48:49.999Z</time></trkpt><trkpt lat="48.11229379809116" lon="-77.81926099149668"><ele>298.8</ele><time>2026-04-26T21:48:51.999Z</time></trkpt><trkpt lat="48.112204347088074" lon="-77.81933475727749"><ele>299.0</ele><time>2026-04-26T21:48:53.999Z</time></trkpt><trkpt lat="48.1121175179651" lon="-77.81945903497972"><ele>300.33333333333337</ele><time>2026-04-26T21:48:55.999Z</time></trkpt><trkpt lat="48.112044739394676" lon="-77.81951438932511"><ele>301.6666666666667</ele><time>2026-04-26T21:48:57.999Z</time></trkpt><trkpt lat="48.11198971355227" lon="-77.81956303545276"><ele>303.0</ele><time>2026-04-26T21:48:59.999Z</time></trkpt><trkpt lat="48.111944889632774" lon="-77.8196500660537"><ele>304.3333333333333</ele><time>2026-04-26T21:49:56Z</time></trkpt><trkpt lat="48.11189778135422" lon="-77.81974021735181"><ele>305.66666666666663</ele><time>2026-04-26T21:49:58Z</time></trkpt><trkpt lat="48.111760149936224" lon="-77.81969438434906"><ele>307.0</ele><time>2026-04-26T21:50:00Z</time></trkpt><trkpt lat="48.11168896931168" lon="-77.81959206763207"><ele>307.0</ele><time>2026-04-26T21:50:01Z</time></trkpt><trkpt lat="48.1116259278274" lon="-77.81944192036468"><ele>307.0</ele><time>2026-04-26T21:50:02Z</time></trkpt><trkpt lat="48.1115542528833" lon="-77.81928342800948"><ele>307.0</ele><time>2026-04-26T21:50:03Z</time></trkpt><trkpt lat="48.11147782342408" lon="-77.81912085246593"><ele>307.0</ele><time>2026-04-26T21:50:04Z</time></trkpt><trkpt lat="48.11140235190274" lon="-77.81894981143365"><ele>305.75</ele><time>2026-04-26T21:50:05Z</time></trkpt><trkpt lat="48.111329610151806" lon="-77.81876721347314"><ele>304.5</ele><time>2026-04-26T21:50:06Z</time></trkpt><trkpt lat="48.11124951349024" lon="-77.81859071399028"><ele>303.25</ele><time>2026-04-26T21:50:07Z</time></trkpt><trkpt lat="48.11116206295677" lon="-77.81843221324915"><ele>302.0</ele><time>2026-04-26T21:50:08Z</time></trkpt><trkpt lat="48.11108270492586" lon="-77.81828620298568"><ele>302.0</ele><time>2026-04-26T21:50:09Z</time></trkpt><trkpt lat="48.11101360297994" lon="-77.81813955423044"><ele>302.0</ele><time>2026-04-26T21:50:10Z</time></trkpt><trkpt lat="48.11094643949646" lon="-77.8179890124476"><ele>302.0</ele><time>2026-04-26T21:50:11Z</time></trkpt><trkpt lat="48.11087601575547" lon="-77.81784671287973"><ele>302.0</ele><time>2026-04-26T21:50:12Z</time></trkpt><trkpt lat="48.11080272100604" lon="-77.81771268152846"><ele>302.0</ele><time>2026-04-26T21:50:13Z</time></trkpt><trkpt lat="48.110727347589126" lon="-77.8175838823718"><ele>302.0</ele><time>2026-04-26T21:50:14Z</time></trkpt><trkpt lat="48.11064954514812" lon="-77.81746079757936"><ele>302.0</ele><time>2026-04-26T21:50:15Z</time></trkpt><trkpt lat="48.1105696045439" lon="-77.81734461096488"><ele>302.0</ele><time>2026-04-26T21:50:16Z</time></trkpt><trkpt lat="48.110481964795774" lon="-77.81723271543554"><ele>302.0</ele><time>2026-04-26T21:50:17Z</time></trkpt><trkpt lat="48.11039706614606" lon="-77.8171260032524"><ele>302.0</ele><time>2026-04-26T21:50:18Z</time></trkpt><trkpt lat="48.11032389924289" lon="-77.81703533205891"><ele>302.0</ele><time>2026-04-26T21:50:19Z</time></trkpt><trkpt lat="48.110253564200384" lon="-77.81695508266931"><ele>302.0</ele><time>2026-04-26T21:50:20Z</time></trkpt><trkpt lat="48.110172350605" lon="-77.81686531685793"><ele>302.0</ele><time>2026-04-26T21:50:21Z</time></trkpt><trkpt lat="48.11008801826639" lon="-77.81676896654584"><ele>302.5</ele><time>2026-04-26T21:50:22Z</time></trkpt><trkpt lat="48.109999848290606" lon="-77.81667044556464"><ele>303.0</ele><time>2026-04-26T21:50:23Z</time></trkpt><trkpt lat="48.10990731347588" lon="-77.81657217766522"><ele>303.5</ele><time>2026-04-26T21:50:24Z</time></trkpt><trkpt lat="48.10981518198302" lon="-77.8164736534226"><ele>304.0</ele><time>2026-04-26T21:50:25Z</time></trkpt><trkpt lat="48.10972215400377" lon="-77.81637375497505"><ele>304.0</ele><time>2026-04-26T21:50:26Z</time></trkpt><trkpt lat="48.109629423671116" lon="-77.81627191882666"><ele>304.0</ele><time>2026-04-26T21:50:27Z</time></trkpt><trkpt lat="48.10953721346969" lon="-77.81616566620761"><ele>304.0</ele><time>2026-04-26T21:50:28Z</time></trkpt><trkpt lat="48.109443363737675" lon="-77.81606153349374"><ele>304.0</ele><time>2026-04-26T21:50:29Z</time></trkpt><trkpt lat="48.10934873690887" lon="-77.8159583232523"><ele>303.5</ele><time>2026-04-26T21:50:30Z</time></trkpt><trkpt lat="48.10925503364704" lon="-77.8158548397365"><ele>303.0</ele><time>2026-04-26T21:50:31Z</time></trkpt><trkpt lat="48.109160170583394" lon="-77.81575362310704"><ele>302.5</ele><time>2026-04-26T21:50:32Z</time></trkpt><trkpt lat="48.10906640450941" lon="-77.81565148533662"><ele>302.0</ele><time>2026-04-26T21:50:33Z</time></trkpt><trkpt lat="48.108978966431" lon="-77.81555407487839"><ele>302.0</ele><time>2026-04-26T21:50:34Z</time></trkpt><trkpt lat="48.108897266807325" lon="-77.8154664233621"><ele>302.0</ele><time>2026-04-26T21:50:35Z</time></trkpt><trkpt lat="48.108823518683785" lon="-77.81538756884561"><ele>302.0</ele><time>2026-04-26T21:50:36Z</time></trkpt><trkpt lat="48.10875424894148" lon="-77.8153138736524"><ele>302.0</ele><time>2026-04-26T21:50:37Z</time></trkpt><trkpt lat="48.108690069321206" lon="-77.81524254733594"><ele>302.0</ele><time>2026-04-26T21:50:38Z</time></trkpt><trkpt lat="48.10862938014842" lon="-77.81517681580954"><ele>302.0</ele><time>2026-04-26T21:50:39Z</time></trkpt><trkpt lat="48.10857359606272" lon="-77.81511834316308"><ele>302.1666666666667</ele><time>2026-04-26T21:50:40Z</time></trkpt><trkpt lat="48.108480369052174" lon="-77.81502502150865"><ele>302.33333333333337</ele><time>2026-04-26T21:50:42Z</time></trkpt><trkpt lat="48.10842092014338" lon="-77.81496689926414"><ele>302.5</ele><time>2026-04-26T21:50:44Z</time></trkpt><trkpt lat="48.1083300918438" lon="-77.81495285576759"><ele>302.6666666666667</ele><time>2026-04-26T21:50:48Z</time></trkpt><trkpt lat="48.1082467749077" lon="-77.81506046763585"><ele>302.8333333333333</ele><time>2026-04-26T21:50:50Z</time></trkpt><trkpt lat="48.108198267873796" lon="-77.81512082561747"><ele>303.0</ele><time>2026-04-26T21:50:51Z</time></trkpt><trkpt lat="48.10814063327723" lon="-77.81519008137656"><ele>303.8</ele><time>2026-04-26T21:50:52Z</time></trkpt><trkpt lat="48.10807749232983" lon="-77.81526589052892"><ele>304.6</ele><time>2026-04-26T21:50:53Z</time></trkpt><trkpt lat="48.108008890572464" lon="-77.81534511802418"><ele>305.4</ele><time>2026-04-26T21:50:54Z</time></trkpt><trkpt lat="48.107936395008295" lon="-77.81543152931307"><ele>306.2</ele><time>2026-04-26T21:50:55Z</time></trkpt><trkpt lat="48.10786203341115" lon="-77.81552153533984"><ele>307.0</ele><time>2026-04-26T21:50:56Z</time></trkpt><trkpt lat="48.10778544382472" lon="-77.81561263431145"><ele>307.0</ele><time>2026-04-26T21:50:57Z</time></trkpt><trkpt lat="48.107708180078575" lon="-77.81570650998317"><ele>307.0</ele><time>2026-04-26T21:50:58Z</time></trkpt><trkpt lat="48.10762726778053" lon="-77.815803401393"><ele>307.0</ele><time>2026-04-26T21:50:59Z</time></trkpt><trkpt lat="48.10754155674132" lon="-77.81589601347186"><ele>307.0</ele><time>2026-04-26T21:51:00Z</time></trkpt><trkpt lat="48.107449406047095" lon="-77.81598371221354"><ele>307.0</ele><time>2026-04-26T21:51:01Z</time></trkpt><trkpt lat="48.10735176846516" lon="-77.81605714113033"><ele>307.25</ele><time>2026-04-26T21:51:02Z</time></trkpt><trkpt lat="48.10724489407227" lon="-77.81612050929441"><ele>307.5</ele><time>2026-04-26T21:51:03Z</time></trkpt><trkpt lat="48.107133921005776" lon="-77.81617179526394"><ele>307.75</ele><time>2026-04-26T21:51:04Z</time></trkpt><trkpt lat="48.10701826184599" lon="-77.8162058987902"><ele>308.0</ele><time>2026-04-26T21:51:05Z</time></trkpt><trkpt lat="48.10690073363747" lon="-77.81623106871783"><ele>308.0</ele><time>2026-04-26T21:51:06Z</time></trkpt><trkpt lat="48.10677818956328" lon="-77.81624358798466"><ele>308.0</ele><time>2026-04-26T21:51:07Z</time></trkpt><trkpt lat="48.10665510340715" lon="-77.81624452907826"><ele>308.0</ele><time>2026-04-26T21:51:08Z</time></trkpt><trkpt lat="48.106527411957934" lon="-77.81624351875077"><ele>308.0</ele><time>2026-04-26T21:51:09Z</time></trkpt><trkpt lat="48.10640491304353" lon="-77.81624350601751"><ele>308.4</ele><time>2026-04-26T21:51:10Z</time></trkpt><trkpt lat="48.1062891302911" lon="-77.81623954022773"><ele>308.8</ele><time>2026-04-26T21:51:11Z</time></trkpt><trkpt lat="48.10617792325159" lon="-77.81623972057618"><ele>309.2</ele><time>2026-04-26T21:51:11.999Z</time></trkpt><trkpt lat="48.106072673686825" lon="-77.81624090346824"><ele>309.6</ele><time>2026-04-26T21:51:12.999Z</time></trkpt><trkpt lat="48.10596705931764" lon="-77.81624038512871"><ele>310.0</ele><time>2026-04-26T21:51:13.999Z</time></trkpt><trkpt lat="48.105860844237206" lon="-77.81623734265212"><ele>310.0</ele><time>2026-04-26T21:51:14.999Z</time></trkpt><trkpt lat="48.10575397328626" lon="-77.81623367447662"><ele>310.0</ele><time>2026-04-26T21:51:15.999Z</time></trkpt><trkpt lat="48.10565250498268" lon="-77.81623151908242"><ele>310.0</ele><time>2026-04-26T21:51:16.999Z</time></trkpt><trkpt lat="48.105558130636105" lon="-77.81622969864416"><ele>310.0</ele><time>2026-04-26T21:51:17.999Z</time></trkpt><trkpt lat="48.105465988925744" lon="-77.81622969962112"><ele>310.0</ele><time>2026-04-26T21:51:18.999Z</time></trkpt><trkpt lat="48.10538114634308" lon="-77.81623491119096"><ele>309.8333333333333</ele><time>2026-04-26T21:51:19.999Z</time></trkpt><trkpt lat="48.105301423588564" lon="-77.8162392556835"><ele>309.66666666666663</ele><time>2026-04-26T21:51:20.999Z</time></trkpt><trkpt lat="48.10523074188771" lon="-77.81624202647592"><ele>309.5</ele><time>2026-04-26T21:51:21.999Z</time></trkpt><trkpt lat="48.10512482913952" lon="-77.81624295180974"><ele>309.3333333333333</ele><time>2026-04-26T21:51:23.999Z</time></trkpt><trkpt lat="48.10505455973031" lon="-77.81624619855442"><ele>309.1666666666667</ele><time>2026-04-26T21:51:27.999Z</time></trkpt><trkpt lat="48.10498302892433" lon="-77.816253953188"><ele>309.0</ele><time>2026-04-26T21:51:29.999Z</time></trkpt><trkpt lat="48.104842189335706" lon="-77.81624893180403"><ele>309.0</ele><time>2026-04-26T21:51:31.999Z</time></trkpt></trkseg></trk></gpx>